Time;durP1;ratioP1;P1;durP2;ratioP2;P2;SDS_P1;SDS_P2;PMS_P1;PMS_P2;Temp;Humidity;BMP_temperature;BMP_pressure;BME280_temperature;BME280_humidity;BME280_pressure;Samples;Min_cycle;Max_cycle;Signal;HPM_P1;HPM_P2
2022/06/07 00:02:24;;;;;;;7.00;5.78;;;18.70;97.30;;;;;;5054513;28;20025;-70
2022/06/07 00:04:50;;;;;;;7.38;5.30;;;18.70;97.30;;;;;;5058618;28;20072;-70
2022/06/07 00:07:16;;;;;;;8.10;5.38;;;18.60;97.20;;;;;;5071544;28;20043;-70
2022/06/07 00:09:42;;;;;;;8.13;5.68;;;18.60;97.30;;;;;;5066378;28;20124;-69
2022/06/07 00:12:08;;;;;;;7.30;6.00;;;18.60;97.40;;;;;;5058148;28;20071;-69
2022/06/07 00:14:34;;;;;;;7.07;5.30;;;18.60;97.40;;;;;;5057848;28;20277;-69
2022/06/07 00:17:00;;;;;;;7.63;5.78;;;18.50;97.50;;;;;;5060976;28;20063;-69
2022/06/07 00:19:26;;;;;;;7.40;5.85;;;18.50;97.60;;;;;;5068913;28;20021;-69
2022/06/07 00:21:52;;;;;;;7.30;5.55;;;18.60;97.50;;;;;;5060082;28;20368;-69
2022/06/07 00:24:19;;;;;;;7.15;5.53;;;18.60;97.60;;;;;;5067120;28;20036;-69
2022/06/07 00:26:46;;;;;;;7.50;5.40;;;18.50;97.60;;;;;;5071891;28;20040;-69
2022/06/07 00:29:13;;;;;;;8.63;6.00;;;18.50;97.60;;;;;;5055666;28;20491;-68
2022/06/07 00:31:41;;;;;;;6.78;5.38;;;18.50;97.70;;;;;;5056115;28;20098;-69
2022/06/07 00:34:07;;;;;;;6.85;5.57;;;18.50;97.70;;;;;;5082304;28;20096;-68
2022/06/07 00:36:34;;;;;;;7.47;5.53;;;18.50;97.70;;;;;;5086254;28;20108;-68
2022/06/07 00:38:59;;;;;;;6.95;5.57;;;18.50;97.70;;;;;;5059477;28;20029;-69
2022/06/07 00:41:25;;;;;;;7.05;6.03;;;18.50;97.70;;;;;;5053147;28;20518;-69
2022/06/07 00:44:25;;;;;;;10.13;6.03;;;18.40;97.70;;;;;;5071591;28;20043;-69
2022/06/07 00:47:08;;;;;;;7.03;5.38;;;18.40;97.70;;;;;;5068916;28;20082;-68
2022/06/07 00:49:46;;;;;;;7.70;5.47;;;18.40;97.70;;;;;;5072430;28;20163;-69
2022/06/07 00:52:12;;;;;;;6.70;5.53;;;18.40;97.70;;;;;;5069540;28;20028;-69
2022/06/07 00:54:37;;;;;;;8.25;5.65;;;18.40;97.70;;;;;;5072423;28;20040;-69
2022/06/07 00:57:04;;;;;;;7.00;5.28;;;18.30;97.70;;;;;;5071026;28;20578;-69
2022/06/07 00:59:30;;;;;;;7.15;5.65;;;18.40;97.80;;;;;;5066905;28;20513;-69
2022/06/07 01:01:56;;;;;;;7.70;5.68;;;18.30;97.80;;;;;;5052910;28;20037;-70
2022/06/07 01:04:23;;;;;;;6.55;5.15;;;18.30;97.80;;;;;;5052751;28;20059;-69
2022/06/07 01:12:20;;;;;;;7.88;5.60;;;18.30;97.80;;;;;;5062829;28;20032;-70
2022/06/07 01:14:46;;;;;;;7.00;5.60;;;18.30;97.80;;;;;;5065466;28;20037;-70
2022/06/07 01:17:11;;;;;;;7.05;6.28;;;18.30;97.80;;;;;;5051570;28;20476;-69
2022/06/07 01:19:37;;;;;;;7.63;5.82;;;18.20;97.80;;;;;;5058321;28;20032;-70
2022/06/07 01:22:03;;;;;;;7.38;5.63;;;18.20;97.90;;;;;;5070288;28;20086;-70
2022/06/07 01:24:29;;;;;;;7.25;5.18;;;18.20;97.90;;;;;;5067737;28;20445;-70
2022/06/07 01:26:54;;;;;;;7.32;5.50;;;18.20;97.80;;;;;;5051713;28;20061;-70
2022/06/07 01:29:20;;;;;;;7.15;5.75;;;18.10;97.90;;;;;;5068746;28;20071;-70
2022/06/07 01:31:47;;;;;;;7.55;5.35;;;18.20;97.90;;;;;;5051242;28;20029;-70
2022/06/07 01:34:12;;;;;;;10.13;5.93;;;18.10;97.90;;;;;;5062846;28;20039;-70
2022/06/07 01:36:38;;;;;;;7.95;6.00;;;18.10;98.00;;;;;;5058493;28;20468;-70
2022/06/07 01:41:54;;;;;;;7.00;5.22;;;18.10;97.80;;;;;;5067132;28;20024;-70
2022/06/07 01:44:25;;;;;;;7.20;5.78;;;18.10;98.00;;;;;;5078853;28;20420;-70
2022/06/07 01:46:52;;;;;;;7.30;5.45;;;18.00;98.20;;;;;;5062316;28;20039;-69
2022/06/07 01:49:18;;;;;;;7.25;5.95;;;18.00;98.20;;;;;;5064588;28;20045;-70
2022/06/07 01:51:44;;;;;;;7.93;6.43;;;18.00;98.30;;;;;;5074874;28;20021;-70
2022/06/07 01:54:13;;;;;;;7.93;5.22;;;18.00;98.50;;;;;;5068609;28;20036;-70
2022/06/07 01:56:40;;;;;;;8.55;6.43;;;18.00;98.40;;;;;;5057660;28;20113;-70
2022/06/07 01:59:07;;;;;;;7.38;4.97;;;18.00;98.40;;;;;;5054169;28;20037;-70
2022/06/07 02:01:33;;;;;;;7.80;6.05;;;18.00;98.40;;;;;;5055062;28;20480;-69
2022/06/07 02:03:59;;;;;;;6.50;5.68;;;18.00;98.50;;;;;;5063926;28;20040;-69
2022/06/07 02:06:24;;;;;;;9.93;6.10;;;18.00;98.50;;;;;;5058490;28;20024;-69
2022/06/07 02:08:50;;;;;;;7.90;6.07;;;17.90;98.50;;;;;;5065419;28;20504;-69
2022/06/07 02:11:24;;;;;;;7.18;5.50;;;17.90;98.60;;;;;;5052733;28;20081;-70
2022/06/07 02:13:51;;;;;;;6.07;5.03;;;17.90;98.60;;;;;;5067276;28;20492;-70
2022/06/07 02:16:17;;;;;;;8.23;6.18;;;17.90;98.70;;;;;;5051690;28;20062;-70
2022/06/07 02:18:43;;;;;;;7.68;6.28;;;17.90;98.60;;;;;;5051191;28;20036;-68
2022/06/07 02:21:09;;;;;;;7.57;5.80;;;17.90;98.60;;;;;;5051686;28;20483;-69
2022/06/07 02:23:37;;;;;;;6.72;5.28;;;17.90;98.90;;;;;;5059308;28;20361;-69
2022/06/07 02:26:15;;;;;;;7.88;5.60;;;17.90;98.70;;;;;;5051291;28;20032;-69
2022/06/07 02:28:44;;;;;;;8.05;5.43;;;17.80;98.70;;;;;;5058376;28;20507;-69
2022/06/07 02:31:10;;;;;;;8.20;5.75;;;17.80;98.60;;;;;;5052016;28;20044;-71
2022/06/07 02:33:39;;;;;;;7.57;5.80;;;17.80;98.50;;;;;;5063356;28;20133;-71
2022/06/07 02:36:06;;;;;;;7.00;5.38;;;17.80;98.50;;;;;;5069351;28;20040;-71
2022/06/07 02:38:33;;;;;;;8.32;5.78;;;17.80;98.60;;;;;;5070265;28;20131;-70
2022/06/07 02:41:01;;;;;;;8.63;6.13;;;17.80;98.60;;;;;;5068643;28;20443;-70
2022/06/07 02:43:27;;;;;;;6.50;5.40;;;17.80;98.70;;;;;;5065991;28;20040;-70
2022/06/07 02:45:53;;;;;;;7.95;5.60;;;17.80;98.70;;;;;;5071173;28;20541;-69
2022/06/07 02:48:18;;;;;;;6.97;6.15;;;17.80;98.70;;;;;;5055655;28;20388;-70
2022/06/07 02:50:44;;;;;;;6.53;5.65;;;17.70;98.70;;;;;;5071060;28;20032;-70
2022/06/07 02:53:10;;;;;;;7.20;5.72;;;17.70;98.80;;;;;;5069616;28;20021;-70
2022/06/07 02:55:36;;;;;;;6.72;5.55;;;17.70;98.90;;;;;;5068375;28;20025;-69
2022/06/07 02:58:02;;;;;;;7.20;6.13;;;17.80;98.90;;;;;;5056439;28;20032;-69
2022/06/07 03:00:27;;;;;;;6.18;5.43;;;17.80;98.90;;;;;;5051061;28;20024;-71
2022/06/07 03:02:53;;;;;;;7.55;6.18;;;17.80;99.00;;;;;;5051670;28;20051;-70
2022/06/07 03:05:18;;;;;;;7.72;5.68;;;17.90;98.80;;;;;;5050860;28;20021;-67
2022/06/07 03:07:44;;;;;;;7.90;6.18;;;17.90;98.70;;;;;;5055020;28;20112;-67
2022/06/07 03:10:11;;;;;;;7.60;6.18;;;17.90;98.70;;;;;;5061088;28;20491;-67
2022/06/07 03:12:37;;;;;;;8.52;6.75;;;17.90;98.70;;;;;;5068109;28;20495;-67
2022/06/07 03:15:03;;;;;;;9.45;6.18;;;17.90;98.70;;;;;;5070949;28;20060;-67
2022/06/07 03:17:29;;;;;;;7.15;6.25;;;17.90;98.70;;;;;;5061350;28;20107;-67
2022/06/07 03:19:55;;;;;;;8.07;6.63;;;17.90;98.70;;;;;;5050718;28;20416;-67
2022/06/07 03:22:21;;;;;;;7.05;5.95;;;17.90;98.70;;;;;;5053923;28;20020;-67
2022/06/07 03:24:46;;;;;;;8.25;6.28;;;17.90;98.70;;;;;;5050411;28;20032;-67
2022/06/07 03:27:12;;;;;;;7.93;5.93;;;17.90;98.70;;;;;;5052236;28;20496;-67
2022/06/07 03:29:38;;;;;;;8.77;5.47;;;17.80;98.70;;;;;;5050610;28;20575;-67
2022/06/07 03:32:06;;;;;;;7.75;6.13;;;17.90;98.80;;;;;;5074888;28;20426;-68
2022/06/07 03:34:32;;;;;;;6.68;5.60;;;17.90;98.80;;;;;;5072613;28;20097;-68
2022/06/07 03:36:58;;;;;;;6.63;5.53;;;17.90;98.80;;;;;;5071807;28;20496;-68
2022/06/07 03:39:23;;;;;;;7.95;5.70;;;18.00;98.80;;;;;;5073624;28;20476;-68
2022/06/07 03:41:49;;;;;;;6.80;5.85;;;18.00;98.80;;;;;;5065724;28;20476;-68
2022/06/07 03:44:14;;;;;;;7.10;5.90;;;18.00;98.70;;;;;;5054160;28;20029;-68
2022/06/07 03:46:43;;;;;;;6.53;5.40;;;18.10;98.70;;;;;;5059379;28;20036;-68
2022/06/07 03:49:09;;;;;;;6.35;5.13;;;18.10;98.60;;;;;;5073832;28;20120;-67
2022/06/07 03:51:34;;;;;;;7.15;5.25;;;18.10;98.40;;;;;;5070861;28;20116;-68
2022/06/07 03:54:00;;;;;;;6.30;5.00;;;18.20;98.30;;;;;;5073499;28;20578;-68
2022/06/07 03:56:26;;;;;;;6.60;5.10;;;18.20;98.20;;;;;;5061696;28;20028;-68
2022/06/07 03:58:52;;;;;;;6.35;5.03;;;18.20;98.00;;;;;;5061573;28;20029;-67
2022/06/07 04:01:21;;;;;;;6.00;4.88;;;18.30;97.90;;;;;;5054358;28;20037;-68
2022/06/07 04:03:48;;;;;;;5.93;4.72;;;18.30;97.80;;;;;;5053873;28;20033;-68
2022/06/07 04:06:18;;;;;;;6.82;4.90;;;18.40;97.70;;;;;;5068308;28;21999;-68
2022/06/07 04:08:44;;;;;;;6.07;4.40;;;18.40;97.50;;;;;;5055552;28;20095;-68
2022/06/07 04:11:11;;;;;;;6.07;4.25;;;18.50;97.40;;;;;;5054374;28;20048;-68
2022/06/07 04:13:37;;;;;;;5.65;4.00;;;18.50;97.40;;;;;;5069641;28;20033;-68
2022/06/07 04:16:11;;;;;;;4.72;4.10;;;18.50;97.10;;;;;;5053482;28;20028;-68
2022/06/07 04:18:36;;;;;;;4.55;3.83;;;18.50;96.80;;;;;;5073132;28;20529;-68
2022/06/07 04:21:02;;;;;;;4.72;3.70;;;18.60;96.70;;;;;;5069928;28;20045;-68
2022/06/07 04:23:28;;;;;;;4.45;3.33;;;18.60;96.50;;;;;;5053605;28;20029;-68
2022/06/07 04:25:53;;;;;;;6.95;3.78;;;18.60;96.50;;;;;;5053517;28;20021;-67
2022/06/07 04:28:19;;;;;;;6.13;3.83;;;18.60;96.20;;;;;;5071689;28;20047;-67
2022/06/07 04:30:46;;;;;;;5.50;3.95;;;18.60;96.10;;;;;;5062860;28;20439;-67
2022/06/07 04:33:15;;;;;;;6.45;3.55;;;18.70;95.60;;;;;;5062411;28;20016;-67
2022/06/07 04:35:45;;;;;;;3.67;2.90;;;18.60;95.80;;;;;;5067037;28;20481;-68
2022/06/07 04:38:11;;;;;;;3.88;2.90;;;18.60;95.50;;;;;;5070652;28;20624;-68
2022/06/07 04:40:42;;;;;;;3.67;2.80;;;18.60;95.30;;;;;;5067191;28;20073;-68
2022/06/07 04:43:09;;;;;;;5.75;2.75;;;18.60;95.20;;;;;;5069091;28;20119;-68
2022/06/07 04:45:37;;;;;;;3.97;2.88;;;18.70;95.10;;;;;;5066407;28;20033;-68
2022/06/07 04:48:03;;;;;;;3.78;2.85;;;18.70;94.80;;;;;;5070848;28;20041;-72
2022/06/07 04:50:29;;;;;;;4.18;2.80;;;18.70;94.70;;;;;;5066361;28;20033;-69
2022/06/07 04:52:54;;;;;;;3.60;2.75;;;18.70;94.60;;;;;;5067951;28;20025;-69
2022/06/07 04:55:20;;;;;;;3.88;2.72;;;18.80;94.60;;;;;;5067697;28;20560;-69
2022/06/07 04:57:46;;;;;;;3.58;2.58;;;18.80;94.40;;;;;;5053416;28;20515;-69
2022/06/07 05:00:18;;;;;;;4.15;2.50;;;18.70;94.30;;;;;;5052398;28;20025;-68
2022/06/07 05:02:45;;;;;;;6.15;3.00;;;18.80;94.40;;;;;;5052755;28;20029;-69
2022/06/07 05:05:13;;;;;;;5.05;2.67;;;18.80;94.40;;;;;;5069692;28;20037;-69
2022/06/07 05:07:39;;;;;;;3.83;2.72;;;18.70;94.10;;;;;;5052570;28;20041;-69
2022/06/07 05:10:11;;;;;;;6.43;2.70;;;18.80;94.30;;;;;;5052292;28;20047;-69
2022/06/07 05:12:37;;;;;;;4.30;2.90;;;18.90;94.20;;;;;;5065145;28;20028;-69
2022/06/07 05:15:05;;;;;;;5.43;2.50;;;19.00;93.80;;;;;;5060557;28;20033;-69
2022/06/07 05:17:31;;;;;;;6.43;2.42;;;19.00;93.80;;;;;;5064103;28;20060;-69
2022/06/07 05:19:57;;;;;;;7.28;2.40;;;19.00;93.70;;;;;;5060859;28;20106;-68
2022/06/07 05:22:24;;;;;;;4.32;2.80;;;19.10;93.60;;;;;;5063035;28;20071;-69
2022/06/07 05:24:50;;;;;;;3.80;2.50;;;19.10;93.50;;;;;;5063557;28;20403;-69
2022/06/07 05:27:20;;;;;;;4.28;2.80;;;19.00;93.20;;;;;;5052065;28;20043;-68
2022/06/07 05:29:49;;;;;;;4.43;2.95;;;19.00;93.30;;;;;;5056986;28;20036;-69
2022/06/07 05:32:16;;;;;;;5.20;2.50;;;19.00;93.40;;;;;;5069949;28;20032;-68
2022/06/07 05:34:43;;;;;;;5.00;2.50;;;19.10;93.60;;;;;;5062939;28;20031;-68
2022/06/07 05:37:17;;;;;;;3.47;2.20;;;19.10;93.50;;;;;;5060620;28;20131;-68
2022/06/07 05:39:43;;;;;;;5.32;3.13;;;19.10;93.40;;;;;;5070524;28;20029;-68
2022/06/07 05:42:14;;;;;;;5.13;2.05;;;19.20;93.40;;;;;;5070073;28;20036;-68
2022/06/07 05:44:40;;;;;;;3.88;2.70;;;19.20;92.90;;;;;;5072041;28;20024;-68
2022/06/07 05:47:07;;;;;;;3.58;2.58;;;19.20;92.90;;;;;;5062063;28;20036;-68
2022/06/07 05:49:32;;;;;;;3.55;2.45;;;19.20;93.10;;;;;;5062893;28;20487;-68
2022/06/07 05:52:00;;;;;;;4.50;2.60;;;19.20;93.00;;;;;;5070023;28;20025;-68
2022/06/07 05:54:27;;;;;;;5.53;2.78;;;19.30;93.00;;;;;;5070866;28;20028;-68
2022/06/07 05:56:53;;;;;;;3.22;1.98;;;19.30;92.90;;;;;;5062187;28;20036;-68
2022/06/07 05:59:19;;;;;;;5.05;3.03;;;19.40;92.90;;;;;;5051311;28;20044;-68
2022/06/07 06:01:44;;;;;;;3.83;2.40;;;19.40;92.70;;;;;;5054997;28;20492;-68
2022/06/07 06:04:10;;;;;;;4.05;2.55;;;19.50;92.70;;;;;;5071493;28;20039;-68
2022/06/07 06:06:37;;;;;;;4.45;2.67;;;19.70;92.60;;;;;;5064575;28;20430;-68
2022/06/07 06:11:48;;;;;;;2.85;1.88;;;20.00;92.00;;;;;;5054544;28;20047;-71
2022/06/07 06:14:14;;;;;;;3.70;2.10;;;20.10;91.50;;;;;;5062727;28;20036;-71
2022/06/07 06:16:40;;;;;;;4.18;2.03;;;20.20;91.10;;;;;;5057754;28;20408;-71
2022/06/07 06:19:05;;;;;;;4.60;1.80;;;20.30;90.50;;;;;;5057252;28;20101;-70
2022/06/07 06:21:37;;;;;;;6.25;2.45;;;20.40;90.40;;;;;;5052662;28;20082;-70
2022/06/07 06:24:03;;;;;;;3.95;1.85;;;20.40;90.40;;;;;;5070294;28;20032;-70
2022/06/07 06:26:28;;;;;;;2.17;1.65;;;20.40;89.60;;;;;;5058577;28;20111;-70
2022/06/07 06:28:54;;;;;;;2.63;1.83;;;20.50;89.80;;;;;;5069970;28;20107;-71
2022/06/07 06:31:22;;;;;;;5.22;2.47;;;20.60;90.00;;;;;;5057838;28;20028;-73
2022/06/07 06:33:50;;;;;;;3.83;1.80;;;20.70;89.60;;;;;;5058853;28;20391;-72
2022/06/07 06:36:19;;;;;;;2.92;2.00;;;20.90;88.50;;;;;;5065389;28;20017;-72
2022/06/07 06:38:45;;;;;;;3.30;1.70;;;20.90;87.80;;;;;;5053210;28;20683;-73
2022/06/07 06:41:14;;;;;;;3.63;1.95;;;21.00;85.70;;;;;;5067880;28;20044;-73
2022/06/07 06:43:40;;;;;;;4.43;1.98;;;21.10;85.50;;;;;;5069797;28;20020;-72
2022/06/07 06:46:09;;;;;;;3.70;2.15;;;21.20;85.00;;;;;;5066987;28;20082;-73
2022/06/07 06:48:35;;;;;;;3.15;1.70;;;21.30;85.90;;;;;;5051976;28;20033;-72
2022/06/07 06:51:05;;;;;;;2.35;1.50;;;21.40;83.60;;;;;;5051652;28;20025;-73
2022/06/07 06:53:31;;;;;;;6.63;2.22;;;21.50;83.70;;;;;;5068520;28;20056;-73
2022/06/07 06:55:57;;;;;;;4.20;1.92;;;21.70;83.20;;;;;;5067078;28;20050;-72
2022/06/07 06:58:25;;;;;;;2.15;1.50;;;21.80;83.70;;;;;;5055009;28;20111;-73
2022/06/07 07:01:03;;;;;;;2.17;1.73;;;21.90;83.10;;;;;;5068245;28;20484;-72
2022/06/07 07:03:29;;;;;;;2.65;1.50;;;22.00;82.50;;;;;;5069305;28;20036;-71
2022/06/07 07:05:56;;;;;;;2.03;1.45;;;22.10;81.30;;;;;;5051637;28;20025;-72
2022/06/07 07:08:25;;;;;;;2.88;1.70;;;22.20;81.60;;;;;;5069456;28;20037;-72
2022/06/07 07:11:02;;;;;;;3.15;1.88;;;22.20;81.90;;;;;;5067345;28;20025;-72
2022/06/07 07:13:29;;;;;;;2.60;1.70;;;22.30;81.30;;;;;;5074339;28;20036;-72
2022/06/07 07:15:57;;;;;;;2.50;1.65;;;22.30;81.10;;;;;;5076782;28;20206;-73
2022/06/07 07:18:24;;;;;;;3.22;1.92;;;22.30;80.30;;;;;;5068217;28;20111;-73
2022/06/07 07:20:49;;;;;;;2.97;1.50;;;22.40;80.20;;;;;;5072407;28;20059;-73
2022/06/07 07:23:16;;;;;;;3.92;1.50;;;22.40;79.70;;;;;;5072194;28;20496;-73
2022/06/07 07:25:42;;;;;;;2.47;1.30;;;22.50;79.30;;;;;;5071642;28;20032;-73
2022/06/07 07:28:07;;;;;;;2.97;1.98;;;22.60;77.50;;;;;;5069974;28;20025;-73
2022/06/07 07:30:33;;;;;;;3.90;1.77;;;22.50;76.10;;;;;;5067852;28;20423;-73
2022/06/07 07:32:58;;;;;;;3.08;1.45;;;22.60;77.20;;;;;;5063010;28;20030;-73
2022/06/07 07:35:24;;;;;;;5.13;1.85;;;22.70;77.10;;;;;;5055965;28;20048;-73
2022/06/07 07:37:50;;;;;;;3.10;1.77;;;22.70;77.90;;;;;;5060483;28;20036;-73
2022/06/07 07:40:16;;;;;;;2.38;1.58;;;22.80;78.10;;;;;;5053771;28;20025;-73
2022/06/07 07:42:42;;;;;;;2.60;1.70;;;22.90;77.50;;;;;;5065467;28;20020;-73
2022/06/07 07:45:09;;;;;;;1.85;1.40;;;22.90;75.70;;;;;;5072576;28;20155;-73
2022/06/07 07:47:35;;;;;;;1.83;1.50;;;22.90;76.60;;;;;;5064767;28;20032;-73
2022/06/07 07:50:01;;;;;;;2.85;1.73;;;23.00;76.90;;;;;;5070668;28;20529;-73
2022/06/07 07:52:27;;;;;;;2.75;1.50;;;23.00;77.10;;;;;;5079719;28;20129;-73
2022/06/07 07:54:53;;;;;;;2.20;1.60;;;23.20;74.50;;;;;;5070843;28;20039;-73
2022/06/07 07:57:18;;;;;;;4.68;1.67;;;23.30;74.80;;;;;;5060540;28;20025;-73
2022/06/07 07:59:44;;;;;;;3.33;1.80;;;23.30;74.90;;;;;;5065406;28;20396;-72
2022/06/07 08:02:18;;;;;;;3.05;2.00;;;23.40;75.30;;;;;;5072164;28;20098;-73
2022/06/07 08:04:44;;;;;;;;;;;23.40;74.60;;;;;;5063914;28;20615;-73
2022/06/07 08:07:10;;;;;;;1.83;1.35;;;23.60;75.90;;;;;;5061370;28;19917;-73
2022/06/07 08:09:35;;;;;;;3.15;1.88;;;23.70;75.70;;;;;;5068691;28;20039;-72
2022/06/07 08:12:05;;;;;;;2.60;1.50;;;23.80;75.00;;;;;;5072005;28;20492;-72
2022/06/07 08:14:32;;;;;;;2.85;1.63;;;24.00;74.70;;;;;;5066174;28;20029;-72
2022/06/07 08:16:57;;;;;;;5.72;1.63;;;24.10;73.20;;;;;;5062408;28;20024;-73
2022/06/07 08:19:23;;;;;;;5.50;1.77;;;24.20;72.20;;;;;;5080252;28;20102;-72
2022/06/07 08:21:48;;;;;;;2.08;1.25;;;24.20;71.50;;;;;;5066217;28;20534;-72
2022/06/07 08:24:16;;;;;;;2.20;1.40;;;24.20;69.60;;;;;;5068493;28;20112;-72
2022/06/07 08:26:42;;;;;;;1.48;1.20;;;24.20;70.50;;;;;;5057719;28;20032;-72
2022/06/07 08:29:09;;;;;;;3.05;1.48;;;24.20;71.70;;;;;;5055831;28;20036;-72
2022/06/07 08:31:35;;;;;;;2.55;1.70;;;24.30;70.90;;;;;;5060401;28;20020;-72
2022/06/07 08:39:31;;;;;;;3.45;1.58;;;24.70;70.50;;;;;;5052987;28;20539;-72
2022/06/07 08:42:04;;;;;;;3.17;1.58;;;24.80;70.00;;;;;;5066472;28;20025;-72
2022/06/07 08:44:50;;;;;;;2.28;1.45;;;24.90;69.90;;;;;;5071801;28;20533;-72
2022/06/07 08:47:41;;;;;;;4.80;1.83;;;25.10;68.70;;;;;;5068332;28;20062;-72
2022/06/07 08:50:23;;;;;;;2.20;1.40;;;25.10;68.20;;;;;;5062442;28;20029;-73
2022/06/07 08:53:01;;;;;;;1.85;1.30;;;25.30;68.40;;;;;;5057764;28;20473;-73
2022/06/07 08:55:39;;;;;;;3.08;1.50;;;25.30;68.00;;;;;;5060012;28;20557;-73
2022/06/07 08:58:36;;;;;;;3.17;1.40;;;25.40;68.50;;;;;;5068781;28;20032;-73
2022/06/07 09:01:40;;;;;;;2.67;1.50;;;25.40;67.00;;;;;;5060347;28;20109;-73
2022/06/07 09:04:21;;;;;;;2.50;1.52;;;25.40;67.60;;;;;;5055395;28;20487;-73
2022/06/07 09:06:56;;;;;;;2.10;1.40;;;25.30;63.50;;;;;;5067258;28;20041;-73
2022/06/07 09:12:09;;;;;;;1.60;1.15;;;25.20;63.90;;;;;;5064426;28;20036;-73
2022/06/07 09:12:27;;;;;;;3.45;1.60;;;25.10;63.90;;;;;;5066748;28;20484;-72
2022/06/07 09:15:03;;;;;;;2.08;1.33;;;25.10;64.60;;;;;;5061683;28;20118;-71
2022/06/07 09:17:33;;;;;;;1.90;1.33;;;25.10;65.60;;;;;;5060485;28;20035;-72
2022/06/07 09:20:01;;;;;;;3.10;1.65;;;25.20;66.50;;;;;;5068988;28;20078;-73
2022/06/07 09:22:38;;;;;;;1.67;1.23;;;25.30;66.00;;;;;;5068778;28;20561;-73
2022/06/07 09:25:15;;;;;;;3.53;1.60;;;25.50;65.60;;;;;;5068769;28;20063;-72
2022/06/07 09:27:42;;;;;;;2.05;1.38;;;25.50;65.60;;;;;;5061272;28;20036;-72
2022/06/07 09:30:17;;;;;;;2.00;1.30;;;25.60;65.20;;;;;;5059676;28;20123;-73
2022/06/07 09:32:45;;;;;;;1.88;1.30;;;25.50;65.30;;;;;;5068879;28;20037;-73
2022/06/07 09:35:38;;;;;;;2.47;1.50;;;25.50;65.10;;;;;;5061010;28;20033;-73
2022/06/07 09:38:10;;;;;;;6.78;1.52;;;25.50;65.30;;;;;;5055428;28;20029;-68
2022/06/07 09:40:42;;;;;;;3.28;1.90;;;25.60;65.10;;;;;;5069155;28;20028;-68
2022/06/07 09:43:13;;;;;;;3.58;1.88;;;25.60;65.80;;;;;;5059869;28;20029;-69
2022/06/07 09:45:45;;;;;;;2.22;1.67;;;25.70;66.30;;;;;;5069240;28;20021;-68
2022/06/07 09:48:25;;;;;;;3.67;2.08;;;25.80;65.70;;;;;;5061109;28;20111;-67
2022/06/07 09:50:58;;;;;;;3.78;1.40;;;25.90;65.00;;;;;;5071098;28;20468;-68
2022/06/07 09:53:25;;;;;;;2.07;1.57;;;26.00;64.00;;;;;;5055137;28;20024;-69
2022/06/07 09:56:11;;;;;;;4.38;1.40;;;26.00;62.70;;;;;;5051075;28;20041;-69
2022/06/07 09:58:52;;;;;;;2.13;1.48;;;26.10;63.40;;;;;;5065053;28;20033;-67
2022/06/07 10:01:26;;;;;;;1.98;1.50;;;26.10;63.50;;;;;;5054826;28;20024;-68
2022/06/07 10:03:54;;;;;;;2.78;1.58;;;26.00;64.00;;;;;;5067299;28;20028;-67
2022/06/07 10:06:27;;;;;;;3.65;1.63;;;25.90;63.80;;;;;;5062353;28;20258;-67
2022/06/07 10:09:03;;;;;;;2.75;1.65;;;25.90;63.90;;;;;;5065755;28;20075;-67
2022/06/07 10:11:55;;;;;;;2.85;1.80;;;25.90;65.00;;;;;;5054209;28;20048;-67
2022/06/07 10:14:40;;;;;;;3.55;1.70;;;26.00;65.10;;;;;;5057547;28;20037;-67
2022/06/07 10:17:20;;;;;;;2.08;1.60;;;26.00;63.30;;;;;;5053382;28;20043;-67
2022/06/07 10:19:52;;;;;;;3.03;1.83;;;25.90;64.10;;;;;;5059987;28;20032;-67
2022/06/07 10:22:49;;;;;;;2.10;1.35;;;25.90;63.80;;;;;;5064517;28;20027;-67
2022/06/07 10:25:17;;;;;;;2.72;1.42;;;26.00;63.70;;;;;;5059795;28;20048;-67
2022/06/07 10:28:17;;;;;;;2.25;1.70;;;26.10;63.40;;;;;;5062152;28;20017;-67
2022/06/07 10:31:09;;;;;;;5.28;2.00;;;26.20;63.10;;;;;;5067905;28;20040;-66
2022/06/07 10:33:54;;;;;;;2.53;1.40;;;26.40;63.00;;;;;;5069888;28;20654;-66
2022/06/07 10:36:51;;;;;;;2.45;1.38;;;26.60;62.70;;;;;;5060034;28;20052;-66
2022/06/07 10:39:38;;;;;;;3.72;1.40;;;26.70;62.60;;;;;;5032167;28;20559;-66
2022/06/07 10:42:19;;;;;;;1.88;1.35;;;26.80;61.20;;;;;;5065888;28;20035;-66
2022/06/07 10:44:50;;;;;;;3.42;1.70;;;26.80;60.50;;;;;;5068186;28;20376;-67
2022/06/07 10:47:32;;;;;;;2.20;1.40;;;26.70;60.90;;;;;;5065272;28;20036;-67
2022/06/07 10:50:06;;;;;;;2.78;1.50;;;26.70;61.10;;;;;;5062323;28;20043;-69
2022/06/07 10:52:55;;;;;;;1.38;1.17;;;26.70;60.80;;;;;;5069050;28;20035;-66
2022/06/07 10:56:02;;;;;;;3.78;1.30;;;26.80;60.60;;;;;;5063314;28;20383;-66
2022/06/07 10:58:42;;;;;;;1.58;1.20;;;26.80;60.60;;;;;;5066093;28;20029;-66
2022/06/07 11:01:14;;;;;;;2.40;1.38;;;26.90;60.50;;;;;;5066679;28;20021;-67
2022/06/07 11:04:04;;;;;;;3.67;1.63;;;27.00;60.60;;;;;;5064377;28;20112;-68
2022/06/07 11:09:38;;;;;;;1.92;1.40;;;27.00;60.60;;;;;;5057110;28;20044;-66
2022/06/07 11:12:26;;;;;;;3.85;1.48;;;27.00;61.10;;;;;;5058712;28;20036;-67
2022/06/07 11:15:14;;;;;;;2.20;1.48;;;27.00;60.90;;;;;;5068747;28;20036;-67
2022/06/07 11:17:51;;;;;;;4.47;1.80;;;26.90;60.30;;;;;;5060003;28;20365;-67
2022/06/07 11:20:18;;;;;;;3.15;1.88;;;26.80;60.00;;;;;;5068425;28;20043;-66
2022/06/07 11:22:56;;;;;;;2.05;1.40;;;26.60;60.00;;;;;;5070727;28;20024;-67
2022/06/07 11:25:39;;;;;;;3.40;2.00;;;26.50;59.30;;;;;;5068566;28;20028;-66
2022/06/07 11:28:15;;;;;;;3.30;1.48;;;26.30;59.40;;;;;;5055981;28;20059;-66
2022/06/07 11:30:45;;;;;;;4.20;1.75;;;26.20;59.50;;;;;;5071553;28;20078;-67
2022/06/07 11:33:31;;;;;;;2.53;1.30;;;26.20;59.50;;;;;;5077798;28;20032;-66
2022/06/07 11:36:20;;;;;;;5.85;1.75;;;26.20;60.10;;;;;;5073278;28;20036;-66
2022/06/07 11:38:55;;;;;;;2.58;1.48;;;26.10;59.50;;;;;;5055268;28;20063;-66
2022/06/07 11:41:40;;;;;;;3.05;1.60;;;26.10;59.40;;;;;;5064267;28;20047;-67
2022/06/07 11:44:10;;;;;;;3.03;1.55;;;26.10;60.20;;;;;;5054232;28;20484;-66
2022/06/07 11:46:35;;;;;;;4.32;1.50;;;26.10;60.10;;;;;;5058313;28;20069;-66
2022/06/07 11:49:20;;;;;;;6.57;1.80;;;26.20;60.00;;;;;;5074857;28;20505;-67
2022/06/07 11:52:13;;;;;;;2.47;1.33;;;26.20;60.40;;;;;;5081668;28;20029;-67
2022/06/07 11:54:53;;;;;;;1.83;1.50;;;26.10;60.40;;;;;;5059515;28;20037;-67
2022/06/07 11:57:31;;;;;;;2.45;1.48;;;26.10;60.60;;;;;;5052658;28;20032;-67
2022/06/07 12:00:15;;;;;;;2.13;1.75;;;26.00;59.70;;;;;;5067936;28;20024;-67
2022/06/07 12:02:41;;;;;;;5.95;1.52;;;26.00;60.10;;;;;;5055463;28;20033;-67
2022/06/07 12:05:40;;;;;;;3.60;1.73;;;25.90;60.30;;;;;;5062142;28;20143;-67
2022/06/07 12:08:23;;;;;;;3.10;2.00;;;25.80;60.40;;;;;;5056486;28;20045;-67
2022/06/07 12:11:20;;;;;;;4.30;1.60;;;25.80;60.10;;;;;;5059792;28;20040;-67
2022/06/07 12:14:12;;;;;;;3.47;1.70;;;25.70;59.90;;;;;;5061088;28;20040;-68
2022/06/07 12:16:43;;;;;;;2.53;1.50;;;25.70;60.20;;;;;;5033166;28;20043;-68
2022/06/07 12:19:24;;;;;;;2.72;1.40;;;25.80;60.60;;;;;;5058012;28;20078;-66
2022/06/07 12:21:57;;;;;;;2.67;1.50;;;26.00;60.50;;;;;;5065853;28;20037;-67
2022/06/07 12:24:23;;;;;;;3.25;1.63;;;26.10;60.00;;;;;;5056234;28;20107;-67
2022/06/07 12:26:50;;;;;;;3.83;1.45;;;26.20;60.50;;;;;;5057080;28;20361;-67
2022/06/07 12:29:29;;;;;;;5.07;1.73;;;26.30;59.90;;;;;;5060780;28;20110;-67
2022/06/07 12:32:01;;;;;;;2.40;1.55;;;26.30;59.30;;;;;;5066687;28;20052;-67
2022/06/07 12:34:36;;;;;;;2.85;1.30;;;26.30;59.10;;;;;;5083668;28;20060;-67
2022/06/07 12:37:05;;;;;;;3.22;1.33;;;26.40;60.00;;;;;;5065812;28;20020;-67
2022/06/07 12:39:51;;;;;;;5.85;3.15;;;26.40;59.60;;;;;;5061973;28;20083;-67
2022/06/07 12:42:19;;;;;;;3.65;2.00;;;26.40;59.60;;;;;;5057914;28;20020;-67
2022/06/07 12:45:00;;;;;;;3.15;2.20;;;26.40;60.20;;;;;;5052609;28;20048;-67
2022/06/07 12:47:33;;;;;;;5.15;2.05;;;26.50;59.00;;;;;;5053983;28;20025;-68
2022/06/07 12:49:59;;;;;;;6.30;3.60;;;26.60;58.80;;;;;;5056951;28;20133;-68
2022/06/07 12:52:28;;;;;;;8.70;4.90;;;26.60;58.00;;;;;;5057856;28;20027;-68
2022/06/07 12:55:00;;;;;;;41.20;17.38;;;26.60;57.80;;;;;;5065628;28;20032;-68
2022/06/07 12:57:31;;;;;;;18.83;8.73;;;26.60;57.80;;;;;;5076412;28;20376;-68
2022/06/07 13:00:14;;;;;;;19.33;7.80;;;26.50;57.80;;;;;;5068563;28;20036;-68
2022/06/07 13:02:44;;;;;;;13.18;5.38;;;26.50;57.80;;;;;;5070268;28;20028;-68
2022/06/07 13:05:22;;;;;;;6.07;2.22;;;26.50;58.10;;;;;;5063986;28;20361;-68
2022/06/07 13:07:53;;;;;;;8.50;3.70;;;26.40;57.10;;;;;;5062072;28;20048;-68
2022/06/07 13:10:30;;;;;;;8.23;3.10;;;26.40;57.20;;;;;;5062333;28;20446;-67
2022/06/07 13:13:01;;;;;;;4.50;2.78;;;26.50;57.20;;;;;;5071377;28;20051;-67
2022/06/07 13:15:32;;;;;;;4.10;1.73;;;26.50;57.40;;;;;;5056907;28;20427;-67
2022/06/07 13:18:04;;;;;;;11.15;3.70;;;26.50;57.20;;;;;;5069338;28;20089;-67
2022/06/07 13:20:38;;;;;;;4.63;2.75;;;26.70;57.40;;;;;;5065126;28;20025;-68
2022/06/07 13:23:25;;;;;;;4.90;1.95;;;26.90;57.20;;;;;;5063666;28;20379;-68
2022/06/07 13:25:54;;;;;;;5.80;1.98;;;27.10;57.20;;;;;;5073793;28;20518;-67
2022/06/07 13:28:22;;;;;;;5.30;2.00;;;27.10;57.20;;;;;;5058329;28;20490;-69